PPNOB SBMK-SBBR
Flight info
| Callsign | PPNOB |
|---|---|
| Flight time | N/A |
| Altitude | 220 |
| Route | DCT DALMU |
| Aircraft | B737/H-SGWR/S |
Departure
| Time | 2026-05-06 15:30 |
|---|---|
| Airport | Mário Ribeiro Airport (SBMK) |
Arrival
| Time | N/A |
|---|---|
| Airport | Presidente Juscelino Kubitschek International Airport (SBBR) |
| Time | Latitude | Longitude | Altitude | Speed | Heading |
|---|---|---|---|---|---|
| 2026-05-06 15:27 | -16.70793 | -43.80981 | 2198 ft | 0 kts | 277° |
| 2026-05-06 15:30 | -16.70790 | -43.81005 | 2198 ft | 26 kts | 277° |
| 2026-05-06 15:30 | -16.70722 | -43.81602 | 2186 ft | 136 kts | 277° |
| 2026-05-06 15:30 | -16.70562 | -43.82839 | 2633 ft | 191 kts | 275° |
| 2026-05-06 15:30 | -16.70454 | -43.84267 | 3841 ft | 211 kts | 276° |
| 2026-05-06 15:31 | -16.70340 | -43.85722 | 4907 ft | 197 kts | 275° |
| 2026-05-06 15:31 | -16.70210 | -43.87120 | 6069 ft | 192 kts | 276° |
| 2026-05-06 15:31 | -16.70086 | -43.88497 | 7098 ft | 191 kts | 276° |
| 2026-05-06 15:32 | -16.69730 | -43.91808 | 7718 ft | 262 kts | 282° |
| 2026-05-06 15:32 | -16.69334 | -43.93764 | 8002 ft | 290 kts | 284° |
| 2026-05-06 15:32 | -16.68875 | -43.95908 | 8257 ft | 313 kts | 283° |
| 2026-05-06 15:32 | -16.68420 | -43.98153 | 8767 ft | 319 kts | 282° |
| 2026-05-06 15:33 | -16.67989 | -44.00424 | 10022 ft | 316 kts | 282° |
| 2026-05-06 15:33 | -16.67585 | -44.02673 | 11082 ft | 318 kts | 281° |
| 2026-05-06 15:33 | -16.67187 | -44.04978 | 11989 ft | 326 kts | 281° |
| 2026-05-06 15:33 | -16.66800 | -44.07297 | 13133 ft | 324 kts | 280° |
| 2026-05-06 15:34 | -16.66419 | -44.09632 | 14105 ft | 329 kts | 279° |
| 2026-05-06 15:34 | -16.66036 | -44.12014 | 14896 ft | 335 kts | 279° |
| 2026-05-06 15:34 | -16.65654 | -44.14421 | 15800 ft | 339 kts | 278° |
| 2026-05-06 15:34 | -16.65275 | -44.16836 | 16606 ft | 345 kts | 277° |
| 2026-05-06 15:35 | -16.64884 | -44.19331 | 17421 ft | 352 kts | 277° |
| 2026-05-06 15:35 | -16.64483 | -44.21889 | 18287 ft | 363 kts | 277° |
| 2026-05-06 15:35 | -16.64071 | -44.24519 | 19056 ft | 372 kts | 277° |
| 2026-05-06 15:35 | -16.63648 | -44.27212 | 19816 ft | 380 kts | 276° |
| 2026-05-06 15:36 | -16.63222 | -44.29951 | 20586 ft | 386 kts | 276° |
| 2026-05-06 15:36 | -16.62776 | -44.32726 | 21376 ft | 392 kts | 276° |
| 2026-05-06 15:36 | -16.62314 | -44.35578 | 21812 ft | 407 kts | 276° |
| 2026-05-06 15:36 | -16.61836 | -44.38557 | 22121 ft | 424 kts | 277° |
| 2026-05-06 15:37 | -16.61343 | -44.41670 | 22135 ft | 445 kts | 277° |
| 2026-05-06 15:37 | -16.60838 | -44.44900 | 22139 ft | 458 kts | 276° |
| 2026-05-06 15:37 | -16.60328 | -44.48182 | 22130 ft | 468 kts | 277° |
| 2026-05-06 15:37 | -16.59796 | -44.51563 | 22128 ft | 474 kts | 277° |
| 2026-05-06 15:38 | -16.59257 | -44.54946 | 22120 ft | 471 kts | 277° |
| 2026-05-06 15:38 | -16.58719 | -44.58308 | 22112 ft | 468 kts | 277° |
| 2026-05-06 15:38 | -16.58183 | -44.61656 | 22111 ft | 467 kts | 277° |
| 2026-05-06 15:38 | -16.57648 | -44.64994 | 22111 ft | 466 kts | 277° |
| 2026-05-06 15:39 | -16.57116 | -44.68321 | 22114 ft | 467 kts | 277° |
| 2026-05-06 15:39 | -16.56588 | -44.71621 | 22117 ft | 467 kts | 277° |
| 2026-05-06 15:39 | -16.56046 | -44.75003 | 22121 ft | 469 kts | 277° |
| 2026-05-06 15:39 | -16.55508 | -44.78369 | 22118 ft | 470 kts | 277° |
| 2026-05-06 15:40 | -16.54968 | -44.81737 | 22112 ft | 471 kts | 277° |
| 2026-05-06 15:40 | -16.54434 | -44.85059 | 22109 ft | 471 kts | 277° |
| 2026-05-06 15:40 | -16.53892 | -44.88434 | 22107 ft | 472 kts | 277° |
| 2026-05-06 15:40 | -16.53352 | -44.91789 | 22110 ft | 472 kts | 277° |
| 2026-05-06 15:41 | -16.52806 | -44.95175 | 22114 ft | 472 kts | 277° |
| 2026-05-06 15:41 | -16.52259 | -44.98563 | 22112 ft | 472 kts | 277° |
| 2026-05-06 15:41 | -16.51714 | -45.01936 | 22109 ft | 471 kts | 277° |
| 2026-05-06 15:41 | -16.51171 | -45.05296 | 22108 ft | 471 kts | 277° |
| 2026-05-06 15:42 | -16.50627 | -45.08660 | 22116 ft | 471 kts | 277° |
| 2026-05-06 15:42 | -16.50081 | -45.12033 | 22111 ft | 471 kts | 277° |
| 2026-05-06 15:42 | -16.49535 | -45.15399 | 22117 ft | 470 kts | 277° |
| 2026-05-06 15:42 | -16.48991 | -45.18750 | 22111 ft | 470 kts | 277° |
| 2026-05-06 15:43 | -16.48443 | -45.22125 | 22111 ft | 470 kts | 277° |
| 2026-05-06 15:43 | -16.47897 | -45.25482 | 22112 ft | 470 kts | 277° |
| 2026-05-06 15:43 | -16.47349 | -45.28849 | 22114 ft | 470 kts | 277° |
| 2026-05-06 15:43 | -16.46802 | -45.32206 | 22115 ft | 470 kts | 277° |
| 2026-05-06 15:44 | -16.46261 | -45.35518 | 22111 ft | 470 kts | 277° |
| 2026-05-06 15:44 | -16.45713 | -45.38876 | 22111 ft | 470 kts | 277° |
| 2026-05-06 15:44 | -16.45164 | -45.42234 | 22116 ft | 470 kts | 277° |
| 2026-05-06 15:44 | -16.44611 | -45.45610 | 22117 ft | 471 kts | 277° |
| 2026-05-06 15:45 | -16.44061 | -45.48972 | 22112 ft | 471 kts | 277° |
| 2026-05-06 15:45 | -16.43508 | -45.52340 | 22118 ft | 471 kts | 277° |
| 2026-05-06 15:45 | -16.42955 | -45.55709 | 22113 ft | 471 kts | 277° |
| 2026-05-06 15:45 | -16.42404 | -45.59066 | 22114 ft | 471 kts | 277° |
| 2026-05-06 15:46 | -16.41850 | -45.62434 | 22120 ft | 471 kts | 277° |
| 2026-05-06 15:46 | -16.41297 | -45.65793 | 22122 ft | 471 kts | 277° |
| 2026-05-06 15:46 | -16.40750 | -45.69109 | 22127 ft | 470 kts | 277° |
| 2026-05-06 15:46 | -16.40188 | -45.72512 | 22123 ft | 471 kts | 277° |
| 2026-05-06 15:47 | -16.39633 | -45.75872 | 22121 ft | 471 kts | 277° |
| 2026-05-06 15:47 | -16.39086 | -45.79183 | 22116 ft | 470 kts | 277° |
| 2026-05-06 15:47 | -16.38530 | -45.82541 | 22119 ft | 470 kts | 277° |
| 2026-05-06 15:47 | -16.37974 | -45.85897 | 22120 ft | 470 kts | 277° |
| 2026-05-06 15:48 | -16.37418 | -45.89252 | 22121 ft | 470 kts | 277° |
| 2026-05-06 15:48 | -16.36861 | -45.92607 | 22118 ft | 470 kts | 277° |
| 2026-05-06 15:48 | -16.36304 | -45.95959 | 22118 ft | 470 kts | 277° |
| 2026-05-06 15:48 | -16.35746 | -45.99313 | 22123 ft | 470 kts | 277° |
| 2026-05-06 15:49 | -16.35188 | -46.02662 | 22123 ft | 470 kts | 277° |
| 2026-05-06 15:49 | -16.34630 | -46.06010 | 22121 ft | 470 kts | 277° |
| 2026-05-06 15:49 | -16.34072 | -46.09356 | 22127 ft | 470 kts | 277° |
| 2026-05-06 15:49 | -16.33510 | -46.12721 | 22122 ft | 470 kts | 277° |
| 2026-05-06 15:50 | -16.32950 | -46.16073 | 22114 ft | 470 kts | 277° |
| 2026-05-06 15:50 | -16.32390 | -46.19422 | 22128 ft | 470 kts | 277° |
| 2026-05-06 15:50 | -16.31828 | -46.22777 | 22130 ft | 470 kts | 277° |
| 2026-05-06 15:50 | -16.31272 | -46.26089 | 22127 ft | 470 kts | 277° |
| 2026-05-06 15:51 | -16.30711 | -46.29434 | 22128 ft | 470 kts | 277° |
| 2026-05-06 15:51 | -16.30148 | -46.32785 | 22129 ft | 469 kts | 277° |
| 2026-05-06 15:51 | -16.29585 | -46.36135 | 22122 ft | 470 kts | 277° |
| 2026-05-06 15:51 | -16.29020 | -46.39489 | 22130 ft | 469 kts | 277° |
| 2026-05-06 15:52 | -16.28456 | -46.42837 | 22121 ft | 470 kts | 277° |
| 2026-05-06 15:52 | -16.27891 | -46.46188 | 22130 ft | 470 kts | 277° |
| 2026-05-06 15:52 | -16.27324 | -46.49547 | 22130 ft | 471 kts | 277° |
| 2026-05-06 15:52 | -16.26765 | -46.52853 | 22118 ft | 471 kts | 277° |
| 2026-05-06 15:53 | -16.26188 | -46.56262 | 22123 ft | 471 kts | 277° |
| 2026-05-06 15:53 | -16.25621 | -46.59615 | 22129 ft | 471 kts | 277° |
| 2026-05-06 15:53 | -16.25050 | -46.62978 | 22125 ft | 471 kts | 277° |
| 2026-05-06 15:53 | -16.24491 | -46.66276 | 22119 ft | 471 kts | 277° |
| 2026-05-06 15:54 | -16.23920 | -46.69638 | 22128 ft | 471 kts | 277° |
| 2026-05-06 15:54 | -16.23353 | -46.72980 | 22124 ft | 471 kts | 277° |
| 2026-05-06 15:54 | -16.22780 | -46.76345 | 22121 ft | 471 kts | 277° |
| 2026-05-06 15:54 | -16.22346 | -46.79726 | 22106 ft | 468 kts | 268° |
| 2026-05-06 15:55 | -16.22736 | -46.83046 | 22118 ft | 461 kts | 252° |
| 2026-05-06 15:55 | -16.23855 | -46.86159 | 22133 ft | 458 kts | 245° |
| 2026-05-06 15:55 | -16.25099 | -46.89195 | 22120 ft | 458 kts | 244° |
| 2026-05-06 15:55 | -16.26359 | -46.92273 | 22123 ft | 458 kts | 245° |
| 2026-05-06 15:56 | -16.27582 | -46.95327 | 22118 ft | 459 kts | 245° |
| 2026-05-06 15:56 | -16.28780 | -46.98390 | 22116 ft | 459 kts | 245° |
| 2026-05-06 15:56 | -16.29965 | -47.01449 | 22117 ft | 459 kts | 245° |
| 2026-05-06 15:56 | -16.31157 | -47.04532 | 22128 ft | 459 kts | 246° |
| 2026-05-06 15:57 | -16.32350 | -47.07616 | 22122 ft | 459 kts | 245° |
| 2026-05-06 15:57 | -16.33544 | -47.10698 | 22116 ft | 458 kts | 245° |
| 2026-05-06 15:57 | -16.34737 | -47.13778 | 22123 ft | 459 kts | 245° |
| 2026-05-06 15:57 | -16.35916 | -47.16852 | 22091 ft | 453 kts | 248° |
| 2026-05-06 15:58 | -16.36596 | -47.20017 | 21205 ft | 454 kts | 264° |
| 2026-05-06 15:58 | -16.36234 | -47.23299 | 20282 ft | 460 kts | 284° |
| 2026-05-06 15:58 | -16.35026 | -47.26352 | 19800 ft | 451 kts | 297° |
| 2026-05-06 15:58 | -16.33223 | -47.29009 | 19344 ft | 449 kts | 311° |
| 2026-05-06 15:59 | -16.30979 | -47.31250 | 18912 ft | 447 kts | 319° |
| 2026-05-06 15:59 | -16.28553 | -47.33255 | 18578 ft | 444 kts | 322° |
| 2026-05-06 15:59 | -16.26085 | -47.35174 | 18222 ft | 441 kts | 323° |
| 2026-05-06 15:59 | -16.23628 | -47.37091 | 17833 ft | 440 kts | 323° |
| 2026-05-06 16:00 | -16.21207 | -47.39025 | 17439 ft | 438 kts | 322° |
| 2026-05-06 16:00 | -16.18835 | -47.40967 | 17071 ft | 432 kts | 321° |
| 2026-05-06 16:00 | -16.16479 | -47.42925 | 16852 ft | 437 kts | 321° |
| 2026-05-06 16:00 | -16.14105 | -47.44908 | 16601 ft | 438 kts | 321° |
| 2026-05-06 16:01 | -16.11741 | -47.46887 | 16379 ft | 436 kts | 321° |
| 2026-05-06 16:01 | -16.09365 | -47.48874 | 16151 ft | 438 kts | 321° |
| 2026-05-06 16:01 | -16.07015 | -47.50835 | 15933 ft | 431 kts | 321° |
| 2026-05-06 16:01 | -16.04666 | -47.52793 | 15733 ft | 434 kts | 321° |
| 2026-05-06 16:02 | -16.02350 | -47.54721 | 15521 ft | 429 kts | 322° |
| 2026-05-06 16:02 | -15.99991 | -47.56687 | 15296 ft | 429 kts | 322° |
| 2026-05-06 16:02 | -15.97724 | -47.58576 | 15067 ft | 413 kts | 322° |
| 2026-05-06 16:02 | -15.95611 | -47.60507 | 14850 ft | 396 kts | 311° |
| 2026-05-06 16:03 | -15.94577 | -47.62035 | 14715 ft | 386 kts | 299° |
| 2026-05-06 16:03 | -15.93379 | -47.64480 | 14520 ft | 371 kts | 296° |
| 2026-05-06 16:03 | -15.92277 | -47.66860 | 14306 ft | 360 kts | 295° |
| 2026-05-06 16:03 | -15.91216 | -47.69168 | 14092 ft | 349 kts | 295° |
| 2026-05-06 16:04 | -15.90179 | -47.71410 | 13889 ft | 340 kts | 296° |
| 2026-05-06 16:04 | -15.89160 | -47.73590 | 13646 ft | 331 kts | 296° |
| 2026-05-06 16:04 | -15.88159 | -47.75717 | 13405 ft | 324 kts | 297° |
| 2026-05-06 16:04 | -15.87171 | -47.77804 | 13193 ft | 318 kts | 297° |
| 2026-05-06 16:05 | -15.86204 | -47.79843 | 12972 ft | 313 kts | 297° |
| 2026-05-06 16:05 | -15.85243 | -47.81864 | 12853 ft | 311 kts | 297° |
| 2026-05-06 16:05 | -15.84288 | -47.83873 | 12626 ft | 309 kts | 297° |
| 2026-05-06 16:05 | -15.83333 | -47.85873 | 12401 ft | 309 kts | 297° |
| 2026-05-06 16:06 | -15.82379 | -47.87876 | 12197 ft | 310 kts | 298° |
| 2026-05-06 16:06 | -15.81425 | -47.89879 | 11958 ft | 311 kts | 299° |
| 2026-05-06 16:06 | -15.80461 | -47.91903 | 11631 ft | 311 kts | 298° |
| 2026-05-06 16:06 | -15.79508 | -47.93903 | 11337 ft | 309 kts | 299° |
| 2026-05-06 16:07 | -15.78570 | -47.95871 | 11036 ft | 306 kts | 298° |
| 2026-05-06 16:07 | -15.77653 | -47.97857 | 10771 ft | 303 kts | 292° |
| 2026-05-06 16:07 | -15.77318 | -48.00013 | 10506 ft | 304 kts | 270° |
| 2026-05-06 16:07 | -15.77437 | -48.02193 | 10270 ft | 301 kts | 266° |
| 2026-05-06 16:08 | -15.77599 | -48.04353 | 9999 ft | 299 kts | 266° |
| 2026-05-06 16:08 | -15.77760 | -48.06502 | 9697 ft | 297 kts | 266° |
| 2026-05-06 16:08 | -15.77913 | -48.08636 | 9422 ft | 295 kts | 266° |
| 2026-05-06 16:08 | -15.78057 | -48.10759 | 9123 ft | 293 kts | 266° |
| 2026-05-06 16:09 | -15.78194 | -48.12855 | 8869 ft | 290 kts | 266° |
| 2026-05-06 16:09 | -15.78327 | -48.14941 | 8647 ft | 288 kts | 267° |
| 2026-05-06 16:09 | -15.78458 | -48.16977 | 8425 ft | 278 kts | 266° |
| 2026-05-06 16:09 | -15.78606 | -48.18948 | 8170 ft | 269 kts | 260° |
| 2026-05-06 16:10 | -15.79329 | -48.20671 | 7933 ft | 257 kts | 229° |
| 2026-05-06 16:10 | -15.80651 | -48.21788 | 7680 ft | 243 kts | 202° |
| 2026-05-06 16:10 | -15.82210 | -48.22267 | 7445 ft | 226 kts | 180° |
| 2026-05-06 16:10 | -15.83735 | -48.22173 | 7286 ft | 211 kts | 165° |
| 2026-05-06 16:11 | -15.84974 | -48.21561 | 7139 ft | 194 kts | 131° |
| 2026-05-06 16:11 | -15.85753 | -48.20454 | 7101 ft | 189 kts | 114° |
| 2026-05-06 16:11 | -15.86328 | -48.19213 | 7001 ft | 191 kts | 112° |
| 2026-05-06 16:11 | -15.86891 | -48.17941 | 6914 ft | 195 kts | 112° |
| 2026-05-06 16:12 | -15.87451 | -48.16653 | 6866 ft | 197 kts | 107° |
| 2026-05-06 16:12 | -15.87621 | -48.15239 | 6783 ft | 199 kts | 91° |
| 2026-05-06 16:12 | -15.87656 | -48.13795 | 6710 ft | 199 kts | 88° |
| 2026-05-06 16:12 | -15.87614 | -48.12364 | 6620 ft | 198 kts | 87° |
| 2026-05-06 16:13 | -15.87533 | -48.10934 | 6543 ft | 200 kts | 86° |
| 2026-05-06 16:13 | -15.87438 | -48.09513 | 6409 ft | 197 kts | 85° |
| 2026-05-06 16:13 | -15.87325 | -48.08135 | 6317 ft | 191 kts | 85° |
| 2026-05-06 16:13 | -15.87197 | -48.06753 | 6187 ft | 191 kts | 84° |
| 2026-05-06 16:14 | -15.87038 | -48.05363 | 5944 ft | 195 kts | 82° |
| 2026-05-06 16:14 | -15.86887 | -48.03952 | 5547 ft | 198 kts | 86° |
| 2026-05-06 16:14 | -15.86819 | -48.02548 | 5259 ft | 186 kts | 88° |
| 2026-05-06 16:14 | -15.86764 | -48.01268 | 5259 ft | 178 kts | 88° |
| 2026-05-06 16:15 | -15.86736 | -48.00007 | 4964 ft | 162 kts | 90° |
| 2026-05-06 16:15 | -15.86693 | -47.98934 | 4658 ft | 135 kts | 88° |
| 2026-05-06 16:15 | -15.86643 | -47.98070 | 4525 ft | 110 kts | 88° |